Time;durP1;ratioP1;P1;durP2;ratioP2;P2;SDS_P1;SDS_P2;PMS_P1;PMS_P2;Temp;Humidity;BMP_temperature;BMP_pressure;BME280_temperature;BME280_humidity;BME280_pressure;Samples;Min_cycle;Max_cycle;Signal;HPM_P1;HPM_P2
2024/03/16 00:01:38;;;;;;;3.20;1.53;;;;;;;;;;6032421;23;20427;-87
2024/03/16 00:15:38;;;;;;;;;;;;;;;;;;;;;
2024/03/16 00:19:24;;;;;;;;;;;;;;;;;;;;;
2024/03/16 00:22:19;;;;;;;1.23;0.80;;;;;;;;;;6041504;23;20469;-90
2024/03/16 00:29:21;;;;;;;;;;;;;;;;;;;;;
2024/03/16 00:42:53;;;;;;;0.60;0.60;;;;;;;;;;6003395;23;20758;-89
2024/03/16 00:49:27;;;;;;;1.57;0.60;;;;;;;;;;6155772;23;20533;-86
2024/03/16 00:52:48;;;;;;;1.50;1.10;;;;;;;;;;6017101;23;20955;-89
2024/03/16 01:03:00;;;;;;;0.63;0.60;;;;;;;;;;6146110;23;20363;-90
2024/03/16 01:06:09;;;;;;;0.63;0.63;;;;;;;;;;6104160;23;20495;-87
2024/03/16 01:09:16;;;;;;;2.20;0.70;;;;;;;;;;6044370;23;20470;-85
2024/03/16 01:15:48;;;;;;;;;;;;;;;;;;;;;
2024/03/16 01:19:09;;;;;;;1.00;0.80;;;;;;;;;;6015229;23;20490;-89
2024/03/16 01:22:27;;;;;;;2.20;0.80;;;;;;;;;;6029779;23;20394;-86
2024/03/16 01:25:30;;;;;;;0.77;0.77;;;;;;;;;;6132477;23;20390;-86
2024/03/16 01:35:30;;;;;;;0.60;0.60;;;;;;;;;;6155374;23;20767;-89
2024/03/16 01:48:36;;;;;;;0.80;0.50;;;;;;;;;;6110225;23;20472;-86
2024/03/16 01:51:36;;;;;;;0.67;0.67;;;;;;;;;;5997411;23;20528;-87
2024/03/16 01:54:35;;;;;;;2.10;0.70;;;;;;;;;;5932384;24;20417;-87
2024/03/16 02:04:33;;;;;;;1.37;0.50;;;;;;;;;;6034922;23;20378;-84
2024/03/16 02:07:29;;;;;;;2.43;0.70;;;;;;;;;;6011483;23;20795;-84
2024/03/16 02:10:34;;;;;;;0.70;0.60;;;;;;;;;;6017346;23;20461;-84
2024/03/16 02:27:04;;;;;;;1.47;0.83;;;;;;;;;;6049055;23;20742;-85
2024/03/16 02:36:47;;;;;;;2.70;1.03;;;;;;;;;;5992225;23;20444;-87
2024/03/16 02:39:31;;;;;;;1.27;1.10;;;;;;;;;;5961048;24;20522;-84
2024/03/16 02:42:40;;;;;;;1.27;0.80;;;;;;;;;;5939406;24;20425;-88
2024/03/16 02:49:24;;;;;;;2.83;1.00;;;;;;;;;;6044067;23;20605;-89
2024/03/16 02:52:47;;;;;;;3.37;1.40;;;;;;;;;;6127560;23;20968;-89
2024/03/16 02:55:37;;;;;;;2.47;1.10;;;;;;;;;;6138170;23;20868;-88
2024/03/16 02:58:37;;;;;;;2.33;1.13;;;;;;;;;;6077986;23;20419;-88
2024/03/16 03:01:40;;;;;;;;;;;;;;;;;;;;;
2024/03/16 03:05:03;;;;;;;1.40;0.93;;;;;;;;;;6137162;23;20426;-85
2024/03/16 03:08:31;;;;;;;;;;;;;;;;;;;;;
2024/03/16 03:15:03;;;;;;;1.73;1.13;;;;;;;;;;5952578;24;20413;-88
2024/03/16 03:20:41;;;;;;;;;;;;;;;;;;;;;
2024/03/16 03:23:36;;;;;;;;;;;;;;;;;;;;;
2024/03/16 03:26:39;;;;;;;2.27;1.43;;;;;;;;;;6215249;23;20409;-88
2024/03/16 03:29:43;;;;;;;2.30;1.43;;;;;;;;;;6176534;23;20426;-88
2024/03/16 03:36:03;;;;;;;1.20;0.93;;;;;;;;;;6198309;23;20460;-88
2024/03/16 03:38:56;;;;;;;3.70;1.27;;;;;;;;;;6175191;23;20396;-87
2024/03/16 03:41:55;;;;;;;3.13;1.40;;;;;;;;;;6174899;23;20414;-87
2024/03/16 03:51:36;;;;;;;4.60;1.30;;;;;;;;;;6157598;23;20406;-87
2024/03/16 03:54:31;;;;;;;5.23;1.67;;;;;;;;;;6158436;23;20401;-87
2024/03/16 03:57:06;;;;;;;3.93;1.73;;;;;;;;;;6160328;23;20762;-88
2024/03/16 03:59:56;;;;;;;1.80;1.30;;;;;;;;;;6164569;23;20425;-88
2024/03/16 04:03:21;;;;;;;1.23;1.10;;;;;;;;;;6037498;23;20447;-89
2024/03/16 04:09:32;;;;;;;;;;;;;;;;;;;;;
2024/03/16 04:12:15;;;;;;;2.77;1.53;;;;;;;;;;6166710;23;20402;-87
2024/03/16 04:15:23;;;;;;;1.87;1.70;;;;;;;;;;6132464;23;20409;-88
2024/03/16 04:21:32;;;;;;;;;;;;;;;;;;;;;
2024/03/16 04:24:12;;;;;;;2.50;1.70;;;;;;;;;;6201487;23;20406;-88
2024/03/16 04:30:22;;;;;;;3.47;2.13;;;;;;;;;;6193535;23;20469;-87
2024/03/16 04:33:15;;;;;;;;;;;;;;;;;;;;;
2024/03/16 04:36:16;;;;;;;2.13;1.70;;;;;;;;;;6186357;23;20555;-88
2024/03/16 04:42:46;;;;;;;;;;;;;;;;;;;;;
2024/03/16 04:45:37;;;;;;;3.23;2.20;;;;;;;;;;6173694;23;20739;-88
2024/03/16 04:48:27;;;;;;;2.50;1.83;;;;;;;;;;6044629;23;20451;-88
2024/03/16 04:54:42;;;;;;;2.80;2.30;;;;;;;;;;5934784;23;20469;-89
2024/03/16 05:00:34;;;;;;;2.90;2.00;;;;;;;;;;6100515;23;20441;-89
2024/03/16 05:09:25;;;;;;;2.50;2.30;;;;;;;;;;6084865;23;20420;-89
2024/03/16 05:12:31;;;;;;;3.03;2.47;;;;;;;;;;6068947;23;20443;-86
2024/03/16 05:15:23;;;;;;;2.97;2.10;;;;;;;;;;6093038;23;20405;-88
2024/03/16 05:17:56;;;;;;;2.53;2.33;;;;;;;;;;6088217;23;20424;-89
2024/03/16 05:30:08;;;;;;;3.60;1.73;;;;;;;;;;6102002;23;20609;-86
2024/03/16 05:33:05;;;;;;;5.53;3.43;;;;;;;;;;6076716;23;20416;-87
2024/03/16 05:35:49;;;;;;;3.77;2.57;;;;;;;;;;6100802;23;20818;-87
2024/03/16 05:38:25;;;;;;;3.13;2.20;;;;;;;;;;6076109;23;20420;-89
2024/03/16 05:41:23;;;;;;;2.00;1.90;;;;;;;;;;6079658;23;20681;-88
2024/03/16 05:44:31;;;;;;;2.53;1.60;;;;;;;;;;6081680;23;20399;-86
2024/03/16 05:47:23;;;;;;;2.90;2.10;;;;;;;;;;6080153;23;20440;-89
2024/03/16 05:50:19;;;;;;;3.90;2.23;;;;;;;;;;6076212;23;20490;-87
2024/03/16 05:53:05;;;;;;;2.60;2.30;;;;;;;;;;6076892;23;20463;-87
2024/03/16 05:59:26;;;;;;;2.60;2.10;;;;;;;;;;6094835;23;20401;-89
2024/03/16 06:02:49;;;;;;;2.07;1.87;;;;;;;;;;6078958;23;20903;-89
2024/03/16 06:05:47;;;;;;;2.90;2.40;;;;;;;;;;6099264;23;20420;-87
2024/03/16 06:08:57;;;;;;;3.13;2.67;;;;;;;;;;6077829;23;20428;-87
2024/03/16 06:11:52;;;;;;;3.43;2.30;;;;;;;;;;5952007;23;20482;-88
2024/03/16 06:14:36;;;;;;;2.90;2.47;;;;;;;;;;6074078;23;20412;-88
2024/03/16 06:21:11;;;;;;;5.17;2.83;;;;;;;;;;6010254;23;20877;-87
2024/03/16 06:24:30;;;;;;;;;;;;;;;;;;;;;
2024/03/16 06:31:23;;;;;;;4.50;3.43;;;;;;;;;;5981123;24;20492;-87
2024/03/16 06:34:16;;;;;;;3.50;2.57;;;;;;;;;;5790383;24;20414;-87
2024/03/16 06:37:32;;;;;;;3.40;2.50;;;;;;;;;;5714969;25;20433;-87
2024/03/16 06:40:41;;;;;;;3.47;3.00;;;;;;;;;;5829416;24;20409;-90
2024/03/16 06:51:20;;;;;;;3.43;3.13;;;;;;;;;;5787474;24;20511;-86
2024/03/16 06:58:07;;;;;;;5.70;2.83;;;;;;;;;;6125279;23;20863;-86
2024/03/16 07:11:47;;;;;;;;;;;;;;;;;;;;;
2024/03/16 07:30:17;;;;;;;3.83;2.40;;;;;;;;;;6135490;23;20487;-85
2024/03/16 07:33:34;;;;;;;4.63;2.43;;;;;;;;;;6115127;23;20447;-87
2024/03/16 07:53:08;;;;;;;4.97;3.27;;;;;;;;;;6178302;23;20880;-86
2024/03/16 08:17:22;;;;;;;5.40;3.00;;;;;;;;;;6114175;23;20457;-90
2024/03/16 08:20:49;;;;;;;6.30;3.70;;;;;;;;;;6003675;23;20451;-86
2024/03/16 08:34:48;;;;;;;4.60;2.97;;;;;;;;;;6089950;23;20425;-85
2024/03/16 08:37:46;;;;;;;3.23;2.67;;;;;;;;;;6134954;23;20411;-88
2024/03/16 08:44:47;;;;;;;4.07;2.80;;;;;;;;;;6135648;23;20394;-87
2024/03/16 08:47:52;;;;;;;2.20;2.00;;;;;;;;;;6138288;23;20469;-87
2024/03/16 08:58:35;;;;;;;3.93;2.00;;;;;;;;;;6120112;23;20411;-89
2024/03/16 09:05:09;;;;;;;2.47;1.67;;;;;;;;;;6043686;23;20369;-87
2024/03/16 09:07:52;;;;;;;3.60;1.73;;;;;;;;;;6002608;23;20430;-88
2024/03/16 09:11:15;;;;;;;;;;;;;;;;;;;;;
2024/03/16 09:17:48;;;;;;;2.83;1.47;;;;;;;;;;6164384;23;20406;-87
2024/03/16 09:20:43;;;;;;;2.20;1.70;;;;;;;;;;6160239;23;20415;-88
2024/03/16 09:24:18;;;;;;;;;;;;;;;;;;;;;
2024/03/16 09:54:36;;;;;;;1.53;1.20;;;;;;;;;;6076292;23;20398;-87
2024/03/16 10:00:43;;;;;;;;;;;;;;;;;;;;;
2024/03/16 10:11:31;;;;;;;2.57;1.67;;;;;;;;;;5977504;24;20427;-89
2024/03/16 10:14:11;;;;;;;5.37;2.57;;;;;;;;;;5928944;24;20464;-85
2024/03/16 10:19:39;;;;;;;9.13;4.23;;;;;;;;;;6159034;23;20525;-87
2024/03/16 10:25:43;;;;;;;6.93;4.10;;;;;;;;;;6160840;23;20427;-87
2024/03/16 10:29:01;;;;;;;5.80;4.83;;;;;;;;;;6119079;23;20406;-89
2024/03/16 10:35:07;;;;;;;5.10;4.23;;;;;;;;;;6064638;23;20409;-87
2024/03/16 10:38:07;;;;;;;6.33;4.90;;;;;;;;;;6102680;23;20431;-88
2024/03/16 10:51:25;;;;;;;3.73;1.60;;;;;;;;;;6089208;23;20511;-87
2024/03/16 10:54:24;;;;;;;2.27;1.20;;;;;;;;;;6096917;23;20710;-85
2024/03/16 11:14:11;;;;;;;2.13;1.20;;;;;;;;;;6171778;23;20414;-86
2024/03/16 11:32:28;;;;;;;2.20;1.47;;;;;;;;;;6131483;23;20443;-86
2024/03/16 11:42:15;;;;;;;1.77;1.13;;;;;;;;;;5987762;24;20403;-87
2024/03/16 11:51:58;;;;;;;4.13;1.07;;;;;;;;;;6109964;23;20467;-86
2024/03/16 11:58:09;;;;;;;5.43;1.13;;;;;;;;;;6082766;23;20485;-89
2024/03/16 12:01:25;;;;;;;1.63;1.10;;;;;;;;;;6077192;23;20511;-88
2024/03/16 12:04:20;;;;;;;1.93;1.50;;;;;;;;;;6011485;23;20399;-88
2024/03/16 12:07:50;;;;;;;;;;;;;;;;;;;;;
2024/03/16 12:14:18;;;;;;;;;;;;;;;;;;;;;
2024/03/16 12:24:29;;;;;;;1.93;1.03;;;;;;;;;;5902424;24;20402;-86
2024/03/16 12:27:24;;;;;;;1.00;0.90;;;;;;;;;;5870584;24;20999;-88
2024/03/16 12:33:41;;;;;;;1.10;0.90;;;;;;;;;;5888526;24;21076;-88
2024/03/16 12:48:42;;;;;;;1.50;1.17;;;;;;;;;;6145501;23;20561;-85
2024/03/16 12:55:01;;;;;;;3.20;0.90;;;;;;;;;;5909105;24;20406;-86
2024/03/16 13:01:37;;;;;;;1.73;0.90;;;;;;;;;;5980725;24;20395;-87
2024/03/16 13:04:28;;;;;;;1.70;1.60;;;;;;;;;;5959214;24;20502;-85
2024/03/16 13:35:32;;;;;;;1.70;1.27;;;;;;;;;;6159723;23;20926;-88
2024/03/16 13:38:36;;;;;;;2.43;1.20;;;;;;;;;;6061811;23;20426;-87
2024/03/16 13:48:40;;;;;;;;;;;;;;;;;;;;;
2024/03/16 13:55:24;;;;;;;2.50;2.20;;;;;;;;;;5931913;24;20411;-87
2024/03/16 14:09:38;;;;;;;2.77;1.50;;;;;;;;;;6009588;23;20473;-88
2024/03/16 14:12:56;;;;;;;1.97;1.60;;;;;;;;;;6142915;23;20398;-89
2024/03/16 14:15:35;;;;;;;2.57;1.20;;;;;;;;;;6129305;23;20405;-89
2024/03/16 14:18:08;;;;;;;5.07;1.63;;;;;;;;;;6109934;23;20445;-92
2024/03/16 14:21:15;;;;;;;1.47;1.37;;;;;;;;;;6121014;23;20417;-87
2024/03/16 14:23:55;;;;;;;2.70;1.93;;;;;;;;;;6122111;23;20404;-86
2024/03/16 14:26:32;;;;;;;1.60;1.50;;;;;;;;;;6109855;23;20432;-87
2024/03/16 14:30:15;;;;;;;2.80;1.40;;;;;;;;;;6134973;23;20400;-87
2024/03/16 14:33:25;;;;;;;2.77;1.50;;;;;;;;;;6131985;23;20408;-84
2024/03/16 14:36:01;;;;;;;3.27;1.40;;;;;;;;;;6092580;23;20412;-85
2024/03/16 14:38:59;;;;;;;3.20;1.83;;;;;;;;;;6107941;23;20392;-87
2024/03/16 14:45:38;;;;;;;2.60;1.67;;;;;;;;;;6132963;23;20404;-88
2024/03/16 14:49:04;;;;;;;2.23;1.50;;;;;;;;;;6132248;23;20455;-90
2024/03/16 15:02:32;;;;;;;1.67;1.43;;;;;;;;;;6080734;23;20417;-86
2024/03/16 15:11:52;;;;;;;2.37;1.70;;;;;;;;;;5999982;23;20515;-87
2024/03/16 15:21:49;;;;;;;2.63;1.57;;;;;;;;;;6074319;23;20493;-87
2024/03/16 15:28:08;;;;;;;2.90;1.80;;;;;;;;;;6011259;23;20756;-86
2024/03/16 15:31:54;;;;;;;3.80;1.20;;;;;;;;;;6024457;23;20459;-86
2024/03/16 15:38:03;;;;;;;1.80;1.70;;;;;;;;;;6102813;23;20447;-86
2024/03/16 15:41:00;;;;;;;2.00;1.90;;;;;;;;;;6081726;23;20406;-88
2024/03/16 15:47:33;;;;;;;1.37;1.20;;;;;;;;;;5958618;24;20429;-87
2024/03/16 15:50:16;;;;;;;4.70;1.50;;;;;;;;;;5965735;23;20455;-85
2024/03/16 15:56:05;;;;;;;;;;;;;;;;;;;;;
2024/03/16 16:02:58;;;;;;;3.07;2.03;;;;;;;;;;6081069;23;20902;-88
2024/03/16 16:09:13;;;;;;;3.73;1.43;;;;;;;;;;6111392;23;20388;-88
2024/03/16 16:12:25;;;;;;;2.27;1.10;;;;;;;;;;6088171;23;20448;-86
2024/03/16 16:15:04;;;;;;;3.70;1.63;;;;;;;;;;6059833;23;20414;-87
2024/03/16 16:17:51;;;;;;;4.37;3.00;;;;;;;;;;6053245;23;20435;-88
2024/03/16 16:20:39;;;;;;;3.93;1.60;;;;;;;;;;6056546;23;20398;-89
2024/03/16 16:24:01;;;;;;;2.90;1.70;;;;;;;;;;5995918;23;20388;-90
2024/03/16 16:33:10;;;;;;;2.50;1.70;;;;;;;;;;5981856;24;20520;-87
2024/03/16 16:36:05;;;;;;;3.60;1.37;;;;;;;;;;6126016;23;21031;-84
2024/03/16 16:38:53;;;;;;;4.43;1.93;;;;;;;;;;6086189;23;20405;-86
2024/03/16 16:41:43;;;;;;;1.63;1.33;;;;;;;;;;6048212;23;20990;-86
2024/03/16 16:44:18;;;;;;;3.73;2.03;;;;;;;;;;6051587;23;20427;-86
2024/03/16 16:50:15;;;;;;;5.20;2.10;;;;;;;;;;6108990;23;20390;-86
2024/03/16 16:52:54;;;;;;;5.17;2.60;;;;;;;;;;6090288;23;20425;-89
2024/03/16 16:55:37;;;;;;;4.23;1.87;;;;;;;;;;6055163;23;20467;-88
2024/03/16 17:23:11;;;;;;;3.63;1.73;;;;;;;;;;6187959;23;20376;-87
2024/03/16 17:26:27;;;;;;;3.53;2.50;;;;;;;;;;6185364;23;20413;-87
2024/03/16 17:28:59;;;;;;;5.77;1.80;;;;;;;;;;6131913;23;20407;-86
2024/03/16 17:32:06;;;;;;;5.73;2.10;;;;;;;;;;6157228;23;20439;-88
2024/03/16 17:35:16;;;;;;;4.80;3.77;;;;;;;;;;6157607;23;20409;-90
2024/03/16 17:40:50;;;;;;;4.10;2.03;;;;;;;;;;6150019;23;20471;-89
2024/03/16 17:43:31;;;;;;;4.60;2.10;;;;;;;;;;6142897;23;20382;-89
2024/03/16 17:46:03;;;;;;;3.00;2.30;;;;;;;;;;6111491;23;20406;-87
2024/03/16 17:51:32;;;;;;;9.00;5.37;;;;;;;;;;6134721;23;20451;-87
2024/03/16 17:54:34;;;;;;;4.17;2.50;;;;;;;;;;6143320;23;20401;-87
2024/03/16 17:57:53;;;;;;;4.73;2.10;;;;;;;;;;6106040;23;20409;-85
2024/03/16 18:00:35;;;;;;;2.37;2.10;;;;;;;;;;6109179;23;21176;-87
2024/03/16 18:03:06;;;;;;;4.00;2.33;;;;;;;;;;6098831;23;20410;-88
2024/03/16 18:05:53;;;;;;;3.17;2.10;;;;;;;;;;6059815;23;20405;-88
2024/03/16 18:09:06;;;;;;;6.07;3.10;;;;;;;;;;6120649;23;20406;-87
2024/03/16 18:11:42;;;;;;;3.73;2.23;;;;;;;;;;6109334;23;20457;-89
2024/03/16 18:14:21;;;;;;;4.60;2.30;;;;;;;;;;6112159;23;20403;-87
2024/03/16 18:17:11;;;;;;;4.23;2.40;;;;;;;;;;6106826;23;20518;-89
2024/03/16 18:20:19;;;;;;;7.43;3.60;;;;;;;;;;6173891;23;20398;-88
2024/03/16 18:23:07;;;;;;;3.40;2.83;;;;;;;;;;6125507;23;20823;-87
2024/03/16 18:25:38;;;;;;;3.80;2.40;;;;;;;;;;6109819;23;20417;-87
2024/03/16 18:28:19;;;;;;;2.70;2.10;;;;;;;;;;6147887;23;20455;-87
2024/03/16 18:30:56;;;;;;;5.00;2.60;;;;;;;;;;6134937;23;20505;-87
2024/03/16 18:33:49;;;;;;;3.50;2.70;;;;;;;;;;6149828;23;20462;-88
2024/03/16 18:36:53;;;;;;;4.23;2.60;;;;;;;;;;6159103;23;20402;-87
2024/03/16 18:43:36;;;;;;;4.57;2.03;;;;;;;;;;6153096;23;20445;-87
2024/03/16 18:46:46;;;;;;;3.67;2.00;;;;;;;;;;6145846;23;20438;-86
2024/03/16 18:49:54;;;;;;;;;;;;;;;;;;;;;
2024/03/16 18:52:40;;;;;;;5.60;3.93;;;;;;;;;;6160284;23;20411;-89
2024/03/16 18:55:37;;;;;;;4.97;3.10;;;;;;;;;;6132737;23;20403;-86
2024/03/16 19:01:44;;;;;;;3.57;2.20;;;;;;;;;;6100857;23;20585;-88
2024/03/16 19:04:37;;;;;;;8.90;2.03;;;;;;;;;;6133083;23;20405;-89
2024/03/16 19:10:39;;;;;;;5.80;2.30;;;;;;;;;;6105362;23;20447;-87
2024/03/16 19:13:25;;;;;;;2.20;2.03;;;;;;;;;;6135740;23;20403;-86
2024/03/16 19:16:05;;;;;;;4.80;3.30;;;;;;;;;;6155838;23;20395;-87
2024/03/16 19:18:38;;;;;;;3.27;2.23;;;;;;;;;;6159629;23;20405;-88
2024/03/16 19:21:05;;;;;;;3.10;2.13;;;;;;;;;;6131383;23;20391;-86
2024/03/16 19:23:40;;;;;;;3.13;2.33;;;;;;;;;;6157830;23;20465;-88
2024/03/16 19:26:18;;;;;;;5.00;2.20;;;;;;;;;;6128481;23;20423;-87
2024/03/16 19:29:16;;;;;;;4.00;1.90;;;;;;;;;;6122307;23;20456;-88
2024/03/16 19:35:36;;;;;;;5.27;1.67;;;;;;;;;;6136075;23;20406;-88
2024/03/16 19:38:21;;;;;;;2.20;1.70;;;;;;;;;;6077945;23;20427;-87
2024/03/16 19:41:04;;;;;;;5.00;2.67;;;;;;;;;;6114227;23;20401;-91
2024/03/16 19:43:48;;;;;;;3.87;2.20;;;;;;;;;;6148913;23;20399;-89
2024/03/16 19:49:44;;;;;;;2.77;2.30;;;;;;;;;;6145864;23;20390;-89
2024/03/16 19:52:33;;;;;;;;;;;;;;;;;;;;;
2024/03/16 19:55:07;;;;;;;5.53;3.07;;;;;;;;;;6107262;23;20410;-90
2024/03/16 19:57:48;;;;;;;3.60;2.43;;;;;;;;;;6106563;23;20476;-88
2024/03/16 20:00:37;;;;;;;4.67;2.30;;;;;;;;;;6106686;23;20411;-88
2024/03/16 20:03:40;;;;;;;;;;;;;;;;;;;;;
2024/03/16 20:06:12;;;;;;;2.70;1.70;;;;;;;;;;6122174;23;20407;-89
2024/03/16 20:08:48;;;;;;;4.97;3.17;;;;;;;;;;6099499;23;20411;-86
2024/03/16 20:11:23;;;;;;;4.07;2.30;;;;;;;;;;6110937;23;20431;-86
2024/03/16 20:14:17;;;;;;;3.87;2.30;;;;;;;;;;6130432;23;20399;-88
2024/03/16 20:16:55;;;;;;;3.43;2.40;;;;;;;;;;6127513;23;20437;-84
2024/03/16 20:19:33;;;;;;;2.90;2.33;;;;;;;;;;6079641;23;20407;-87
2024/03/16 20:22:16;;;;;;;4.43;2.40;;;;;;;;;;6107973;23;20918;-85
2024/03/16 20:25:08;;;;;;;3.00;2.07;;;;;;;;;;6136115;23;21010;-86
2024/03/16 20:27:52;;;;;;;2.77;2.13;;;;;;;;;;6119770;23;20445;-87
2024/03/16 20:30:25;;;;;;;5.20;2.90;;;;;;;;;;6154604;23;20403;-86
2024/03/16 20:32:54;;;;;;;4.30;2.60;;;;;;;;;;6157498;23;20403;-85
2024/03/16 20:35:24;;;;;;;5.60;3.37;;;;;;;;;;6131612;23;20984;-86
2024/03/16 20:37:56;;;;;;;4.10;2.70;;;;;;;;;;6129073;23;20433;-84
2024/03/16 20:40:28;;;;;;;2.03;1.93;;;;;;;;;;6128279;23;20942;-85
2024/03/16 20:42:59;;;;;;;6.00;3.20;;;;;;;;;;6129264;23;20407;-85
2024/03/16 20:45:28;;;;;;;4.93;2.10;;;;;;;;;;6130980;23;20407;-87
2024/03/16 20:48:28;;;;;;;4.50;2.63;;;;;;;;;;6131484;23;20426;-86
2024/03/16 20:51:11;;;;;;;7.07;2.17;;;;;;;;;;6132680;23;20500;-86
2024/03/16 20:54:04;;;;;;;3.03;2.50;;;;;;;;;;6128746;23;20410;-86
2024/03/16 20:56:33;;;;;;;3.60;2.50;;;;;;;;;;6124826;23;20473;-86
2024/03/16 20:59:03;;;;;;;5.23;2.23;;;;;;;;;;6102990;23;20419;-88
2024/03/16 21:04:35;;;;;;;4.37;2.60;;;;;;;;;;6114552;23;20394;-86
2024/03/16 21:07:06;;;;;;;3.80;2.70;;;;;;;;;;6105247;23;20987;-85
2024/03/16 21:09:45;;;;;;;6.03;3.10;;;;;;;;;;6105971;23;20397;-87
2024/03/16 21:12:59;;;;;;;4.57;3.17;;;;;;;;;;6129606;23;20928;-87
2024/03/16 21:15:32;;;;;;;6.60;3.43;;;;;;;;;;6099626;23;20461;-86
2024/03/16 21:18:05;;;;;;;7.13;3.07;;;;;;;;;;6113953;23;20432;-88
2024/03/16 21:20:37;;;;;;;6.87;3.50;;;;;;;;;;6121199;23;20437;-89
2024/03/16 21:23:40;;;;;;;3.77;3.40;;;;;;;;;;6125193;23;20462;-91
2024/03/16 21:26:12;;;;;;;3.90;3.20;;;;;;;;;;6122283;23;20470;-89
2024/03/16 21:35:39;;;;;;;3.80;2.87;;;;;;;;;;6165920;23;20373;-87
2024/03/16 21:38:20;;;;;;;4.20;2.90;;;;;;;;;;6113826;23;20433;-86
2024/03/16 21:41:04;;;;;;;6.37;2.93;;;;;;;;;;6113548;23;20417;-86
2024/03/16 21:43:30;;;;;;;7.80;3.80;;;;;;;;;;6110066;23;20962;-87
2024/03/16 21:46:15;;;;;;;5.93;3.70;;;;;;;;;;6123040;23;20407;-88
2024/03/16 21:49:01;;;;;;;;;;;;;;;;;;;;;
2024/03/16 21:51:41;;;;;;;6.23;3.70;;;;;;;;;;6146554;23;20456;-89
2024/03/16 21:54:21;;;;;;;7.13;4.40;;;;;;;;;;6125142;23;20395;-88
2024/03/16 21:57:10;;;;;;;8.30;4.90;;;;;;;;;;6126791;23;20525;-91
2024/03/16 22:00:13;;;;;;;11.67;5.70;;;;;;;;;;6151743;23;20470;-88
2024/03/16 22:03:13;;;;;;;5.43;4.53;;;;;;;;;;6113568;23;20454;-90
2024/03/16 22:05:53;;;;;;;7.03;5.00;;;;;;;;;;6121706;23;20952;-90
2024/03/16 22:08:35;;;;;;;8.00;5.33;;;;;;;;;;6166747;23;20492;-88
2024/03/16 22:11:11;;;;;;;6.73;4.97;;;;;;;;;;6153292;23;20546;-87
2024/03/16 22:14:04;;;;;;;5.37;4.37;;;;;;;;;;6153770;23;20459;-87
2024/03/16 22:16:34;;;;;;;6.43;5.67;;;;;;;;;;6152271;23;20590;-88
2024/03/16 22:19:04;;;;;;;6.87;4.67;;;;;;;;;;6154202;23;20451;-89
2024/03/16 22:24:18;;;;;;;6.07;4.70;;;;;;;;;;6172953;23;20459;-86
2024/03/16 22:26:55;;;;;;;7.67;5.10;;;;;;;;;;6109564;23;20783;-84
2024/03/16 22:29:39;;;;;;;6.10;4.70;;;;;;;;;;6115230;23;20403;-86
2024/03/16 22:32:17;;;;;;;6.50;4.80;;;;;;;;;;6124941;23;20441;-89
2024/03/16 22:35:02;;;;;;;9.83;4.90;;;;;;;;;;6128300;23;20458;-89
2024/03/16 22:43:35;;;;;;;8.63;5.20;;;;;;;;;;6129301;23;20416;-86
2024/03/16 22:53:14;;;;;;;6.93;4.53;;;;;;;;;;6127730;23;20414;-88
2024/03/16 22:55:59;;;;;;;7.83;7.00;;;;;;;;;;6076087;23;20407;-86
2024/03/16 22:58:58;;;;;;;5.80;5.10;;;;;;;;;;6114943;23;20407;-84
2024/03/16 23:01:40;;;;;;;7.87;6.50;;;;;;;;;;6134154;23;20407;-87
2024/03/16 23:04:12;;;;;;;6.40;4.87;;;;;;;;;;6106246;23;20482;-84
2024/03/16 23:06:53;;;;;;;9.50;5.50;;;;;;;;;;6109408;23;20424;-86
2024/03/16 23:09:38;;;;;;;7.60;5.67;;;;;;;;;;6111849;23;20421;-86
2024/03/16 23:12:36;;;;;;;7.10;5.30;;;;;;;;;;6165368;23;20597;-89
2024/03/16 23:15:12;;;;;;;10.97;6.40;;;;;;;;;;6111733;23;20434;-85
2024/03/16 23:17:59;;;;;;;9.77;6.57;;;;;;;;;;6106322;23;20415;-85
2024/03/16 23:20:32;;;;;;;7.20;5.10;;;;;;;;;;6105923;23;20399;-86
2024/03/16 23:23:03;;;;;;;11.60;7.07;;;;;;;;;;6086012;23;20963;-85
2024/03/16 23:25:48;;;;;;;8.17;5.73;;;;;;;;;;6127247;23;20407;-86
2024/03/16 23:28:17;;;;;;;6.73;5.97;;;;;;;;;;6148281;23;20415;-87
2024/03/16 23:33:58;;;;;;;8.00;6.00;;;;;;;;;;6145068;23;20427;-88
2024/03/16 23:36:34;;;;;;;9.40;6.80;;;;;;;;;;6119465;23;20438;-87
2024/03/16 23:39:39;;;;;;;8.93;6.77;;;;;;;;;;6113328;23;21010;-87
2024/03/16 23:42:12;;;;;;;17.43;6.50;;;;;;;;;;6103803;23;20415;-89
2024/03/16 23:44:48;;;;;;;9.97;6.93;;;;;;;;;;6107283;23;20411;-88
2024/03/16 23:47:34;;;;;;;14.20;7.07;;;;;;;;;;6111857;23;20495;-87
2024/03/16 23:50:24;;;;;;;8.53;6.13;;;;;;;;;;6108342;23;20413;-87
2024/03/16 23:53:11;;;;;;;9.70;6.47;;;;;;;;;;6021706;23;20414;-85
2024/03/16 23:55:44;;;;;;;8.50;7.00;;;;;;;;;;6106274;23;20405;-87
2024/03/16 23:58:21;;;;;;;7.97;7.17;;;;;;;;;;6104417;23;20817;-87
